KGTF/GTF METAR and TAF weather

Enter ICAO airport designator
Station Type Date Time Source
KGTF METAR 2022/06/28 13:53 UTC NOAA

KGTF 281353Z 31011KT 10SM CLR 16/07 A3015 RMK AO2 SLP181 T01560072


Station Type Date Time Source
KGTF Decoded METAR 2022/06/28 13:53 UTC NOAA

GREAT FALLS INTERNATIONAL, MT, United States (KGTF) 47-28N 111-23W 1119M
Jun 28, 2022 - 09:53 AM EDT / 2022.06.28 1353 UTC
Wind: from the NW (310 degrees) at 13 MPH (11 KT):0
Visibility: 10 mile(s):0
Sky conditions: clear
Temperature: 60.1 F (15.6 C)
Dew Point: 45.0 F (7.2 C)
Relative Humidity: 57%
Pressure (altimeter): 30.15 in. Hg (1020 hPa)
ob: KGTF 281353Z 31011KT 10SM CLR 16/07 A3015 RMK AO2 SLP181 T01560072
cycle: 14

Station Type Date Time Source
KGTF TAF 2022/06/28 12:22 UTC NOAA

TAF KGTF 281120Z 2812/2912 VRB05KT P6SM FEW120
FM282200 17011G21KT P6SM VCTS BKN080CB PROB30 2822/2902 VRB25G40KT 4SM TSRA OVC050CB
FM290300 21009KT P6SM SCT100

Example: see airport list